Time;durP1;ratioP1;P1;durP2;ratioP2;P2;SDS_P1;SDS_P2;PMS_P1;PMS_P2;Temp;Humidity;BMP_temperature;BMP_pressure;BME280_temperature;BME280_humidity;BME280_pressure;Samples;Min_cycle;Max_cycle;Signal;HPM_P1;HPM_P2
2021/12/01 04:58:53;;;;;;;;;;;;;;;4.81;100.00;97975.34;4878410;29;19932;-69
2021/12/01 05:01:20;;;;;;;;;;;;;;;4.84;100.00;97980.13;4894277;29;20347;-69
2021/12/01 05:03:48;;;;;;;;;;;;;;;4.93;100.00;97979.91;4880020;29;19939;-69
2021/12/01 05:06:16;;;;;;;;;;;;;;;4.99;100.00;97979.22;4882499;29;19946;-69
2021/12/01 05:08:45;;;;;;;;;;;;;;;5.09;100.00;97986.13;4883921;29;20324;-69
2021/12/01 05:11:12;;;;;;;;;;;;;;;5.05;100.00;97980.53;4883371;29;20309;-69
2021/12/01 05:13:40;;;;;;;;;;;;;;;5.04;100.00;97994.72;4881586;29;19936;-69
2021/12/01 05:16:07;;;;;;;;;;;;;;;5.06;100.00;97987.66;4884144;29;19932;-69
2021/12/01 05:18:34;;;;;;;;;;;;;;;5.08;100.00;97984.53;4882673;29;19939;-67
2021/12/01 05:21:02;;;;;;;;;;;;;;;5.26;100.00;97989.19;4878534;29;19939;-69
2021/12/01 05:23:30;;;;;;;;;;;;;;;5.30;100.00;97992.03;4892931;29;19932;-70
2021/12/01 05:25:57;;;;;;;;;;;;;;;5.25;100.00;97984.03;4883060;29;19948;-70
2021/12/01 05:28:24;;;;;;;;;;;;;;;5.17;100.00;97976.75;4887037;29;19928;-69
2021/12/01 05:30:52;;;;;;;;;;;;;;;5.12;100.00;97979.84;4886032;29;19932;-69
2021/12/01 05:33:19;;;;;;;;;;;;;;;5.08;100.00;97979.78;4881862;29;20227;-69
2021/12/01 05:35:46;;;;;;;;;;;;;;;5.07;100.00;97988.47;4882109;29;19932;-69
2021/12/01 05:38:15;;;;;;;;;;;;;;;5.08;100.00;97984.53;4880544;29;19931;-69
2021/12/01 05:40:43;;;;;;;;;;;;;;;5.08;100.00;97990.88;4884364;29;19932;-69
2021/12/01 05:43:10;;;;;;;;;;;;;;;5.07;100.00;97986.50;4882353;29;19932;-69
2021/12/01 05:45:38;;;;;;;;;;;;;;;5.08;100.00;97987.31;4891234;29;19931;-69
2021/12/01 05:48:05;;;;;;;;;;;;;;;5.12;100.00;97988.16;4879211;29;20371;-69
2021/12/01 05:50:33;;;;;;;;;;;;;;;5.22;100.00;97985.56;4882513;29;19932;-69
2021/12/01 05:53:00;;;;;;;;;;;;;;;5.26;100.00;97991.97;4881593;29;19931;-69
2021/12/01 05:55:29;;;;;;;;;;;;;;;5.23;100.00;97992.69;4881701;29;19946;-69
2021/12/01 05:57:57;;;;;;;;;;;;;;;5.34;100.00;97981.81;4873289;29;19943;-69
2021/12/01 06:00:24;;;;;;;;;;;;;;;5.35;100.00;97975.09;4867860;29;19928;-69
2021/12/01 06:02:52;;;;;;;;;;;;;;;5.42;100.00;97971.63;4866323;29;19938;-69
2021/12/01 06:05:21;;;;;;;;;;;;;;;5.45;100.00;97971.69;4863864;29;20245;-69
2021/12/01 06:07:49;;;;;;;;;;;;;;;5.45;100.00;97966.16;4864260;29;19974;-69
2021/12/01 06:10:17;;;;;;;;;;;;;;;5.53;100.00;97967.84;4858980;29;19932;-69
2021/12/01 06:12:45;;;;;;;;;;;;;;;5.53;100.00;97969.81;4862146;29;19944;-69
2021/12/01 06:15:14;;;;;;;;;;;;;;;5.56;100.00;97972.66;4864929;29;19932;-70
2021/12/01 06:17:42;;;;;;;;;;;;;;;5.55;100.00;97971.03;4876005;29;19927;-76
2021/12/01 06:20:10;;;;;;;;;;;;;;;5.63;100.00;97971.94;4870273;29;19928;-69
2021/12/01 06:22:39;;;;;;;;;;;;;;;5.66;100.00;97971.22;4847827;29;19939;-70
2021/12/01 06:25:06;;;;;;;;;;;;;;;5.54;100.00;97971.41;4860986;29;19933;-70
2021/12/01 06:27:34;;;;;;;;;;;;;;;5.60;100.00;97976.28;4872735;29;19929;-70
2021/12/01 06:30:02;;;;;;;;;;;;;;;5.59;100.00;97977.47;4863210;29;19932;-70
2021/12/01 06:32:29;;;;;;;;;;;;;;;5.67;100.00;97979.16;4861578;29;20678;-70
2021/12/01 06:34:57;;;;;;;;;;;;;;;5.66;100.00;97982.31;4875708;29;19932;-70
2021/12/01 06:37:24;;;;;;;;;;;;;;;5.63;100.00;97980.28;4865044;29;19959;-69
2021/12/01 06:39:52;;;;;;;;;;;;;;;5.66;100.00;97977.56;4870574;29;19936;-69
2021/12/01 06:42:19;;;;;;;;;;;;;;;5.61;100.00;97975.09;4862993;29;19939;-69
2021/12/01 06:44:46;;;;;;;;;;;;;;;5.60;100.00;97976.28;4856949;29;20220;-69
2021/12/01 06:47:15;;;;;;;;;;;;;;;5.57;100.00;97974.25;4863623;29;19932;-69
2021/12/01 06:49:45;;;;;;;;;;;;;;;5.55;100.00;97984.13;4860288;29;19936;-69
2021/12/01 06:52:13;;;;;;;;;;;;;;;5.54;100.00;97988.88;4862616;29;19935;-70
2021/12/01 06:54:41;;;;;;;;;;;;;;;5.57;100.00;97971.50;4861461;29;19944;-70
2021/12/01 06:57:08;;;;;;;;;;;;;;;5.66;100.00;97976.75;4867293;29;19939;-70
2021/12/01 06:59:36;;;;;;;;;;;;;;;5.86;100.00;97981.88;4881788;29;19932;-69
2021/12/01 07:02:03;;;;;;;;;;;;;;;5.91;100.00;97975.19;4880137;29;20257;-69
2021/12/01 07:04:30;;;;;;;;;;;;;;;5.97;100.00;97989.53;4879960;29;19935;-69
2021/12/01 07:06:58;;;;;;;;;;;;;;;6.16;100.00;97989.41;4883372;29;20220;-69
2021/12/01 07:09:26;;;;;;;;;;;;;;;6.26;100.00;97985.97;4882504;29;19932;-69
2021/12/01 07:11:53;;;;;;;;;;;;;;;6.45;100.00;97991.38;4877404;29;19932;-69
2021/12/01 07:14:21;;;;;;;;;;;;;;;6.82;100.00;97989.44;4881814;29;19931;-69
2021/12/01 07:16:49;;;;;;;;;;;;;;;7.72;100.00;98001.78;4881534;29;19952;-69
2021/12/01 07:19:16;;;;;;;;;;;;;;;8.80;96.39;98000.00;4881754;29;19932;-70
2021/12/01 07:21:43;;;;;;;;;;;;;;;10.38;85.74;98006.84;4881668;29;19939;-69
2021/12/01 07:24:11;;;;;;;;;;;;;;;11.60;73.55;97996.19;4881373;29;19927;-69
2021/12/01 07:26:38;;;;;;;;;;;;;;;13.11;65.44;97990.19;4879869;29;19931;-69
2021/12/01 07:29:06;;;;;;;;;;;;;;;14.05;59.91;98006.00;4881732;29;20309;-70
2021/12/01 07:31:34;;;;;;;;;;;;;;;14.92;56.54;98011.97;4880254;29;19935;-69
2021/12/01 07:34:01;;;;;;;;;;;;;;;15.08;55.12;98014.88;4880845;29;19942;-69
2021/12/01 07:36:28;;;;;;;;;;;;;;;16.00;50.78;98017.59;4881224;29;19935;-70
2021/12/01 07:38:58;;;;;;;;;;;;;;;16.73;48.69;98014.09;4882522;29;19972;-70
2021/12/01 07:41:25;;;;;;;;;;;;;;;17.27;45.52;98016.97;4881709;29;19958;-70
2021/12/01 07:43:53;;;;;;;;;;;;;;;18.73;40.92;98029.56;4882182;29;19938;-70
2021/12/01 07:46:21;;;;;;;;;;;;;;;19.15;38.77;98027.22;4880192;29;19980;-70
2021/12/01 07:48:48;;;;;;;;;;;;;;;20.35;36.08;98035.88;4879491;29;19960;-70
2021/12/01 07:51:16;;;;;;;;;;;;;;;21.01;34.09;98032.16;4880522;29;19953;-70
2021/12/01 07:53:43;;;;;;;;;;;;;;;21.99;32.92;98028.84;4879976;29;19955;-70
2021/12/01 07:56:12;;;;;;;;;;;;;;;21.66;31.86;98036.53;4880276;29;19955;-70
2021/12/01 07:58:39;;;;;;;;;;;;;;;22.78;29.53;98033.03;4879819;29;20317;-70
2021/12/01 08:01:07;;;;;;;;;;;;;;;23.96;28.73;98029.84;4879512;29;19959;-70
2021/12/01 08:03:34;;;;;;;;;;;;;;;24.89;26.22;98037.50;4877801;29;19973;-70
2021/12/01 08:06:02;;;;;;;;;;;;;;;24.48;26.68;98032.97;4879252;29;19948;-70
2021/12/01 08:08:29;;;;;;;;;;;;;;;24.30;26.23;98030.38;4880042;29;19955;-70
2021/12/01 08:10:57;;;;;;;;;;;;;;;24.73;26.36;98030.22;4879989;29;19955;-70
2021/12/01 08:13:24;;;;;;;;;;;;;;;24.51;26.03;98032.78;4879778;29;20245;-70
2021/12/01 08:15:52;;;;;;;;;;;;;;;23.46;26.97;98028.97;4880433;29;20043;-70
2021/12/01 08:18:19;;;;;;;;;;;;;;;21.44;31.11;98023.31;4880313;29;20237;-70
2021/12/01 08:20:46;;;;;;;;;;;;;;;20.34;33.57;98022.97;4880330;29;19952;-70
2021/12/01 08:23:14;;;;;;;;;;;;;;;19.01;36.35;98011.53;4883001;29;19949;-69
2021/12/01 08:25:41;;;;;;;;;;;;;;;18.23;38.61;98015.53;4883629;29;19970;-70
2021/12/01 08:28:08;;;;;;;;;;;;;;;17.68;41.54;98000.75;4881242;29;19931;-70
2021/12/01 08:30:36;;;;;;;;;;;;;;;17.45;41.71;98009.53;4878862;29;19928;-69
2021/12/01 08:33:04;;;;;;;;;;;;;;;16.90;43.21;98007.94;4880278;29;19931;-69
2021/12/01 08:35:31;;;;;;;;;;;;;;;16.63;45.18;98009.56;4879582;29;19942;-70
2021/12/01 08:37:59;;;;;;;;;;;;;;;15.68;48.95;98021.19;4886364;29;19928;-69
2021/12/01 08:40:26;;;;;;;;;;;;;;;14.58;53.05;98002.22;4880385;29;20243;-69
2021/12/01 08:42:54;;;;;;;;;;;;;;;13.87;56.86;97995.03;4880184;29;19936;-69
2021/12/01 08:45:21;;;;;;;;;;;;;;;13.29;61.70;97987.94;4876845;29;19927;-69
2021/12/01 08:47:49;;;;;;;;;;;;;;;13.06;65.34;97987.84;4883047;29;20329;-69
2021/12/01 08:50:17;;;;;;;;;;;;;;;12.53;68.37;98003.34;4883080;29;19932;-69
2021/12/01 08:52:45;;;;;;;;;;;;;;;12.30;70.80;97985.59;4880284;29;20340;-69
2021/12/01 08:55:12;;;;;;;;;;;;;;;11.97;71.11;97980.69;4883058;29;19943;-69
2021/12/01 08:57:41;;;;;;;;;;;;;;;11.90;79.06;97983.56;4882261;29;19942;-69
2021/12/01 09:00:09;;;;;;;;;;;;;;;11.64;75.57;97982.16;4882935;29;20348;-69
2021/12/01 09:02:36;;;;;;;;;;;;;;;11.49;73.27;97983.47;4884277;29;20328;-69
2021/12/01 09:05:04;;;;;;;;;;;;;;;11.23;78.48;97985.66;4880756;29;20501;-69
2021/12/01 09:07:31;;;;;;;;;;;;;;;10.90;77.78;97980.66;4881720;29;19931;-69
2021/12/01 09:09:59;;;;;;;;;;;;;;;10.75;81.00;97986.72;4880781;29;19940;-69
2021/12/01 09:12:26;;;;;;;;;;;;;;;10.86;79.53;97993.06;4880677;29;19938;-69
2021/12/01 09:14:55;;;;;;;;;;;;;;;10.62;80.76;97986.38;4881381;29;19931;-69
2021/12/01 09:17:23;;;;;;;;;;;;;;;10.65;82.98;97979.97;4882003;29;19962;-69
2021/12/01 09:19:51;;;;;;;;;;;;;;;10.75;82.86;97979.13;4884366;29;20314;-69
2021/12/01 09:22:18;;;;;;;;;;;;;;;10.67;81.95;97977.56;4884363;29;19931;-69
2021/12/01 09:24:47;;;;;;;;;;;;;;;10.64;81.52;97975.56;4882653;29;19939;-69
2021/12/01 09:27:14;;;;;;;;;;;;;;;10.69;84.67;97977.94;4879321;29;20229;-69
2021/12/01 09:29:42;;;;;;;;;;;;;;;10.37;84.30;97986.47;4878541;29;19962;-69
2021/12/01 09:32:10;;;;;;;;;;;;;;;10.60;85.22;97976.81;4878759;29;19928;-69
2021/12/01 09:34:39;;;;;;;;;;;;;;;10.67;86.76;97971.16;4878307;29;20393;-69
2021/12/01 09:37:07;;;;;;;;;;;;;;;10.47;83.32;97960.47;4879895;29;20221;-69
2021/12/01 09:39:34;;;;;;;;;;;;;;;10.47;82.29;97959.66;4880385;29;19931;-69
2021/12/01 09:42:02;;;;;;;;;;;;;;;10.59;83.36;97970.41;4885180;29;20317;-69
2021/12/01 09:44:30;;;;;;;;;;;;;;;10.54;83.42;97966.03;4878254;29;19932;-69
2021/12/01 09:46:57;;;;;;;;;;;;;;;10.52;84.15;97956.47;4882346;29;19943;-69
2021/12/01 09:49:25;;;;;;;;;;;;;;;10.42;83.45;97960.09;4890928;29;19932;-69
2021/12/01 09:51:52;;;;;;;;;;;;;;;10.41;85.21;97945.34;4881521;29;19938;-69
2021/12/01 09:54:20;;;;;;;;;;;;;;;10.39;88.28;97936.53;4879908;29;19935;-69
2021/12/01 09:56:47;;;;;;;;;;;;;;;10.84;84.39;97948.72;4878551;29;20325;-70
2021/12/01 09:59:15;;;;;;;;;;;;;;;11.18;82.26;97949.69;4878002;29;19935;-69
2021/12/01 10:01:42;;;;;;;;;;;;;;;11.09;79.42;97940.97;4878297;29;19932;-70
2021/12/01 10:04:10;;;;;;;;;;;;;;;10.85;83.10;97941.13;4880592;29;19939;-69
2021/12/01 10:06:37;;;;;;;;;;;;;;;10.75;83.15;97937.19;4877787;29;19999;-69
2021/12/01 10:09:07;;;;;;;;;;;;;;;10.84;83.44;97939.53;4881252;29;19939;-69
2021/12/01 10:11:36;;;;;;;;;;;;;;;10.80;84.98;97922.78;4887262;29;19932;-69
2021/12/01 10:14:03;;;;;;;;;;;;;;;10.73;83.38;97936.81;4881318;29;19936;-69
2021/12/01 10:16:32;;;;;;;;;;;;;;;10.58;86.13;97924.09;4879733;29;19955;-69
2021/12/01 10:19:01;;;;;;;;;;;;;;;10.75;87.01;97925.19;4878859;29;19939;-69
2021/12/01 10:21:28;;;;;;;;;;;;;;;10.90;89.04;97912.72;4880143;29;19939;-69
2021/12/01 10:23:58;;;;;;;;;;;;;;;10.71;85.62;97921.63;4878545;29;19932;-69
2021/12/01 10:26:29;;;;;;;;;;;;;;;10.86;85.85;97909.94;4879290;29;19942;-69
2021/12/01 10:28:58;;;;;;;;;;;;;;;10.95;85.66;97901.09;4886120;29;19936;-69
2021/12/01 10:31:31;;;;;;;;;;;;;;;10.77;90.15;97895.63;4881715;29;19986;-69
2021/12/01 10:34:19;;;;;;;;;;;;;;;10.29;88.30;97889.91;4881375;29;20430;-69
2021/12/01 10:36:48;;;;;;;;;;;;;;;10.28;92.96;97876.31;4875227;29;20313;-69
2021/12/01 10:39:18;;;;;;;;;;;;;;;10.10;94.02;97886.75;4884842;29;20500;-69
2021/12/01 10:41:45;;;;;;;;;;;;;;;10.08;96.72;97877.94;4884712;29;19942;-69
2021/12/01 10:44:17;;;;;;;;;;;;;;;10.16;94.41;97877.56;4889715;29;19947;-72
2021/12/01 10:46:49;;;;;;;;;;;;;;;9.87;94.85;97868.47;4883109;29;19939;-70
2021/12/01 10:49:31;;;;;;;;;;;;;;;10.28;95.44;97868.72;4878975;29;19932;-70
2021/12/01 10:51:58;;;;;;;;;;;;;;;10.09;93.87;97855.22;4879058;29;19932;-70
2021/12/01 10:54:26;;;;;;;;;;;;;;;10.22;95.34;97852.81;4877412;29;21654;-70
2021/12/01 10:57:12;;;;;;;;;;;;;;;10.24;94.04;97844.81;4887586;29;19936;-70
2021/12/01 10:59:44;;;;;;;;;;;;;;;10.05;94.15;97836.88;4876600;29;20975;-70
2021/12/01 11:02:12;;;;;;;;;;;;;;;10.14;96.81;97837.25;4876269;29;19932;-70
2021/12/01 11:04:47;;;;;;;;;;;;;;;9.84;94.27;97838.53;4877319;29;19927;-70
2021/12/01 11:07:32;;;;;;;;;;;;;;;10.07;96.25;97837.28;4877861;29;20053;-70
2021/12/01 11:10:12;;;;;;;;;;;;;;;9.73;98.65;97829.41;4878526;29;19959;-70
2021/12/01 11:12:40;;;;;;;;;;;;;;;9.63;99.86;97823.88;4878303;29;20296;-70
2021/12/01 11:15:30;;;;;;;;;;;;;;;9.86;100.00;97816.59;4880107;29;19932;-70
2021/12/01 11:18:19;;;;;;;;;;;;;;;10.25;99.14;97819.25;4875711;29;20396;-70
2021/12/01 11:20:54;;;;;;;;;;;;;;;10.35;95.49;97814.78;4877132;29;19943;-70
2021/12/01 11:23:33;;;;;;;;;;;;;;;10.16;100.00;97804.13;4879470;29;20221;-70
2021/12/01 11:26:07;;;;;;;;;;;;;;;9.96;100.00;97805.78;4878036;29;19932;-70
2021/12/01 11:28:36;;;;;;;;;;;;;;;9.94;100.00;97792.22;4883682;29;19931;-70
2021/12/01 11:31:06;;;;;;;;;;;;;;;10.07;98.73;97789.78;4880274;29;19939;-70
2021/12/01 11:33:33;;;;;;;;;;;;;;;9.66;100.00;97787.53;4884514;29;19931;-70
2021/12/01 11:36:04;;;;;;;;;;;;;;;9.79;100.00;97783.13;4888005;29;19932;-70
2021/12/01 11:38:34;;;;;;;;;;;;;;;9.94;100.00;97786.66;4882356;29;19928;-70
2021/12/01 11:41:02;;;;;;;;;;;;;;;9.93;100.00;97785.84;4882457;29;19947;-70
2021/12/01 11:43:30;;;;;;;;;;;;;;;9.82;100.00;97775.94;4883021;29;20300;-70
2021/12/01 11:45:58;;;;;;;;;;;;;;;9.59;100.00;97765.25;4879468;29;19942;-70
2021/12/01 11:48:27;;;;;;;;;;;;;;;9.71;100.00;97758.41;4875838;29;19932;-70
2021/12/01 11:51:06;;;;;;;;;;;;;;;9.73;100.00;97762.38;4877442;29;19994;-70
2021/12/01 11:53:55;;;;;;;;;;;;;;;9.43;100.00;97762.13;4879930;29;19939;-70
2021/12/01 11:56:28;;;;;;;;;;;;;;;9.25;100.00;97767.75;4876908;29;19931;-70
2021/12/01 11:58:58;;;;;;;;;;;;;;;9.02;100.00;97769.38;4878379;29;20232;-70
2021/12/01 12:01:26;;;;;;;;;;;;;;;8.78;100.00;97759.81;4882318;29;19932;-70
2021/12/01 12:03:53;;;;;;;;;;;;;;;8.93;100.00;97761.41;4882385;29;19938;-70
2021/12/01 12:06:22;;;;;;;;;;;;;;;8.88;100.00;97756.25;4886887;29;19939;-70
2021/12/01 12:08:55;;;;;;;;;;;;;;;8.84;100.00;97754.66;4878664;29;19932;-70
2021/12/01 12:11:43;;;;;;;;;;;;;;;8.63;100.00;97749.09;4879479;29;20360;-70
2021/12/01 12:14:18;;;;;;;;;;;;;;;8.48;100.00;97751.88;4878567;29;19931;-70
2021/12/01 12:17:06;;;;;;;;;;;;;;;8.43;100.00;97743.91;4883527;29;19932;-70
2021/12/01 12:19:42;;;;;;;;;;;;;;;8.63;100.00;97730.38;4887442;29;19938;-70
2021/12/01 12:22:11;;;;;;;;;;;;;;;8.70;100.00;97718.44;4880332;29;19939;-70
2021/12/01 12:24:49;;;;;;;;;;;;;;;8.77;100.00;97730.38;4879169;29;19932;-70
2021/12/01 12:27:34;;;;;;;;;;;;;;;8.81;100.00;97733.13;4878786;29;19932;-70
2021/12/01 12:30:10;;;;;;;;;;;;;;;8.67;100.00;97719.22;4880323;29;19935;-70
2021/12/01 12:32:38;;;;;;;;;;;;;;;8.64;100.00;97714.44;4883568;29;19935;-70
2021/12/01 12:35:08;;;;;;;;;;;;;;;8.52;100.00;97710.06;4883954;29;19932;-70
2021/12/01 12:37:36;;;;;;;;;;;;;;;8.23;100.00;97714.03;4881418;29;19932;-70
2021/12/01 12:40:07;;;;;;;;;;;;;;;8.30;100.00;97700.13;4876942;29;20241;-70
2021/12/01 12:42:34;;;;;;;;;;;;;;;8.29;100.00;97698.56;4892287;29;19939;-70
2021/12/01 12:45:01;;;;;;;;;;;;;;;8.23;100.00;97698.09;4881760;29;19932;-70
2021/12/01 12:47:30;;;;;;;;;;;;;;;8.14;100.00;97692.16;4878112;29;19931;-70
2021/12/01 12:50:08;;;;;;;;;;;;;;;8.15;100.00;97692.91;4881000;29;19928;-70
2021/12/01 12:52:37;;;;;;;;;;;;;;;8.07;100.00;97686.53;4881802;29;19974;-70
2021/12/01 12:55:07;;;;;;;;;;;;;;;8.08;100.00;97677.00;4876068;29;19931;-70
2021/12/01 12:57:49;;;;;;;;;;;;;;;8.15;100.00;97665.88;4877772;29;19935;-70
2021/12/01 13:00:19;;;;;;;;;;;;;;;8.05;100.00;97654.72;4881785;29;19939;-70
2021/12/01 13:02:47;;;;;;;;;;;;;;;8.14;100.00;97644.00;4878353;29;19928;-70
2021/12/01 13:05:32;;;;;;;;;;;;;;;8.11;100.00;97637.25;4876871;29;20301;-70
2021/12/01 13:07:59;;;;;;;;;;;;;;;8.15;100.00;97642.78;4877527;29;19939;-70
2021/12/01 13:10:28;;;;;;;;;;;;;;;8.17;100.00;97643.19;4874173;29;20321;-70
2021/12/01 13:12:59;;;;;;;;;;;;;;;7.97;100.00;97628.88;4873139;29;19942;-70
2021/12/01 13:15:26;;;;;;;;;;;;;;;7.91;100.00;97624.88;4873109;29;19935;-70
2021/12/01 13:17:55;;;;;;;;;;;;;;;7.93;100.00;97616.94;4872598;29;19942;-70
2021/12/01 13:20:25;;;;;;;;;;;;;;;8.00;100.00;97605.78;4873858;29;20257;-70
2021/12/01 13:22:59;;;;;;;;;;;;;;;7.94;100.00;97604.63;4872059;29;19936;-70
2021/12/01 13:25:27;;;;;;;;;;;;;;;8.01;100.00;97609.38;4875037;29;20629;-70
2021/12/01 13:27:54;;;;;;;;;;;;;;;7.96;100.00;97596.66;4877545;29;19940;-70
2021/12/01 13:30:21;;;;;;;;;;;;;;;7.80;100.00;97588.69;4877961;29;19928;-70
2021/12/01 13:33:05;;;;;;;;;;;;;;;7.87;100.00;97594.25;4877842;29;19943;-70
2021/12/01 13:35:33;;;;;;;;;;;;;;;7.74;100.00;97578.34;4878193;29;19943;-70
2021/12/01 13:38:00;;;;;;;;;;;;;;;7.62;100.00;97570.41;4877593;29;19935;-70
2021/12/01 13:40:28;;;;;;;;;;;;;;;7.69;100.00;97574.00;4877552;29;19932;-70
2021/12/01 13:42:56;;;;;;;;;;;;;;;7.63;100.00;97566.44;4873417;29;19932;-70
2021/12/01 13:45:26;;;;;;;;;;;;;;;7.62;100.00;97556.50;4876732;29;20595;-70
2021/12/01 13:47:53;;;;;;;;;;;;;;;7.65;100.00;97550.13;4877693;29;19939;-70
2021/12/01 13:50:21;;;;;;;;;;;;;;;7.57;100.00;97552.13;4876685;29;20209;-70
2021/12/01 13:52:51;;;;;;;;;;;;;;;7.50;100.00;97554.91;4878409;29;19936;-70
2021/12/01 13:55:23;;;;;;;;;;;;;;;7.63;100.00;97549.75;4878381;29;19943;-70
2021/12/01 13:57:52;;;;;;;;;;;;;;;7.63;100.00;97556.09;4871593;29;19948;-70
2021/12/01 14:00:49;;;;;;;;;;;;;;;7.73;100.00;97560.88;4867956;29;19935;-70
2021/12/01 14:03:38;;;;;;;;;;;;;;;7.75;100.00;97563.28;4872468;29;20258;-70
2021/12/01 14:06:08;;;;;;;;;;;;;;;7.71;100.00;97551.31;4868163;29;19932;-70
2021/12/01 14:08:36;;;;;;;;;;;;;;;7.56;100.00;97549.72;4869155;29;19947;-70
2021/12/01 14:11:03;;;;;;;;;;;;;;;7.54;100.00;97557.66;4868184;29;19943;-70
2021/12/01 14:13:32;;;;;;;;;;;;;;;7.50;100.00;97549.34;4867829;29;19932;-70
2021/12/01 14:16:00;;;;;;;;;;;;;;;7.53;100.00;97554.09;4868770;29;19936;-70
2021/12/01 14:18:27;;;;;;;;;;;;;;;7.51;100.00;97547.31;4867845;29;20669;-70
2021/12/01 14:21:10;;;;;;;;;;;;;;;7.52;100.00;97557.28;4868151;29;19936;-70
2021/12/01 14:23:38;;;;;;;;;;;;;;;7.58;100.00;97552.91;4868498;29;19932;-70
2021/12/01 14:26:05;;;;;;;;;;;;;;;7.52;100.00;97549.72;4868588;29;20597;-70
2021/12/01 14:28:32;;;;;;;;;;;;;;;7.55;100.00;97546.16;4868849;29;19936;-70
2021/12/01 14:31:02;;;;;;;;;;;;;;;7.48;100.00;97535.03;4868355;29;19936;-70
2021/12/01 14:33:29;;;;;;;;;;;;;;;7.43;100.00;97526.28;4868677;29;19936;-70
2021/12/01 14:36:05;;;;;;;;;;;;;;;7.21;100.00;97531.78;4865253;29;19932;-70
2021/12/01 14:38:33;;;;;;;;;;;;;;;7.27;100.00;97540.53;4867152;29;19940;-70
2021/12/01 14:41:03;;;;;;;;;;;;;;;7.19;100.00;97542.50;4867130;29;19932;-70
2021/12/01 14:43:31;;;;;;;;;;;;;;;7.16;100.00;97545.31;4866848;29;20353;-70
2021/12/01 14:46:03;;;;;;;;;;;;;;;7.12;100.00;97544.47;4863245;29;19943;-70
2021/12/01 14:48:34;;;;;;;;;;;;;;;7.10;100.00;97532.97;4866774;29;19966;-70
2021/12/01 14:51:03;;;;;;;;;;;;;;;7.03;100.00;97530.16;4864693;29;19936;-70
2021/12/01 14:53:34;;;;;;;;;;;;;;;7.09;100.00;97545.28;4867501;29;19932;-70
2021/12/01 14:56:02;;;;;;;;;;;;;;;7.12;100.00;97523.03;4865156;29;19931;-70
2021/12/01 14:58:31;;;;;;;;;;;;;;;7.17;100.00;97514.31;4875561;29;19936;-70
2021/12/01 15:01:01;;;;;;;;;;;;;;;7.07;100.00;97509.53;4874203;29;19935;-70
2021/12/01 15:03:35;;;;;;;;;;;;;;;7.09;100.00;97503.59;4874208;29;19932;-70
2021/12/01 15:06:03;;;;;;;;;;;;;;;7.03;100.00;97505.94;4889045;29;20298;-70
2021/12/01 15:08:33;;;;;;;;;;;;;;;6.98;100.00;97491.63;4874870;29;19939;-70
2021/12/01 15:11:07;;;;;;;;;;;;;;;7.03;100.00;97505.94;4872469;29;20326;-70
2021/12/01 15:13:36;;;;;;;;;;;;;;;6.98;100.00;97506.34;4873949;29;19927;-70
2021/12/01 15:16:19;;;;;;;;;;;;;;;6.84;100.00;97506.31;4874836;29;19931;-70
2021/12/01 15:18:58;;;;;;;;;;;;;;;6.87;100.00;97494.38;4874878;29;20172;-70
2021/12/01 15:21:26;;;;;;;;;;;;;;;6.98;100.00;97503.56;4875778;29;19936;-70
2021/12/01 15:23:58;;;;;;;;;;;;;;;6.71;100.00;97485.63;4874081;29;19958;-70
2021/12/01 15:26:28;;;;;;;;;;;;;;;6.76;100.00;97493.56;4875175;29;19931;-70
2021/12/01 15:29:01;;;;;;;;;;;;;;;6.66;100.00;97485.19;4874585;29;19936;-70
2021/12/01 15:31:29;;;;;;;;;;;;;;;6.63;100.00;97486.00;4874992;29;19932;-70
2021/12/01 15:33:59;;;;;;;;;;;;;;;6.47;100.00;97486.31;4873036;29;19936;-70
2021/12/01 15:36:33;;;;;;;;;;;;;;;6.49;100.00;97470.88;4873850;29;19940;-70
2021/12/01 15:39:02;;;;;;;;;;;;;;;6.38;100.00;97469.25;4874297;29;19943;-70
2021/12/01 15:41:29;;;;;;;;;;;;;;;6.35;100.00;97465.25;4873681;29;19932;-70
2021/12/01 15:43:57;;;;;;;;;;;;;;;6.36;100.00;97460.47;4874337;29;19935;-69
2021/12/01 15:46:27;;;;;;;;;;;;;;;6.42;100.00;97458.94;4874171;29;19936;-70
2021/12/01 15:48:55;;;;;;;;;;;;;;;6.29;100.00;97454.91;4873025;29;19943;-69
2021/12/01 15:51:22;;;;;;;;;;;;;;;6.35;100.00;97447.81;4871380;29;19928;-70
2021/12/01 15:53:50;;;;;;;;;;;;;;;6.37;100.00;97435.13;4872130;29;19932;-69
2021/12/01 15:56:17;;;;;;;;;;;;;;;6.36;100.00;97444.63;4874166;29;19943;-69
2021/12/01 15:58:44;;;;;;;;;;;;;;;6.33;100.00;97450.94;4864485;29;19943;-69
2021/12/01 16:01:12;;;;;;;;;;;;;;;6.17;100.00;97436.63;4865513;29;19932;-70
2021/12/01 16:03:39;;;;;;;;;;;;;;;6.24;100.00;97433.06;4865457;29;20336;-70
2021/12/01 16:06:07;;;;;;;;;;;;;;;6.21;100.00;97425.53;4865131;29;19935;-70
2021/12/01 16:08:34;;;;;;;;;;;;;;;6.16;100.00;97423.91;4864932;29;19934;-69
2021/12/01 16:11:02;;;;;;;;;;;;;;;6.12;100.00;97428.66;4866240;29;19928;-70
2021/12/01 16:13:30;;;;;;;;;;;;;;;6.10;100.00;97430.22;4863317;29;19936;-70
2021/12/01 16:15:58;;;;;;;;;;;;;;;6.12;100.00;97411.19;4865824;29;19936;-70
2021/12/01 16:18:25;;;;;;;;;;;;;;;6.17;100.00;97399.72;4866091;29;19936;-70
2021/12/01 16:20:54;;;;;;;;;;;;;;;6.27;100.00;97397.00;4864880;29;19962;-70
2021/12/01 16:23:27;;;;;;;;;;;;;;;6.21;100.00;97397.78;4863888;29;19928;-70
2021/12/01 16:25:55;;;;;;;;;;;;;;;6.21;100.00;97412.44;4863420;29;21190;-70
2021/12/01 16:28:23;;;;;;;;;;;;;;;6.22;100.00;97407.69;4864754;29;19928;-70
2021/12/01 16:30:51;;;;;;;;;;;;;;;6.15;100.00;97402.09;4864102;29;19932;-70
2021/12/01 16:33:19;;;;;;;;;;;;;;;6.22;100.00;97399.34;4864341;29;19974;-70
2021/12/01 16:35:47;;;;;;;;;;;;;;;6.16;100.00;97412.81;4866062;29;19928;-70
2021/12/01 16:38:14;;;;;;;;;;;;;;;6.11;100.00;97404.88;4863866;29;19943;-70
2021/12/01 16:40:43;;;;;;;;;;;;;;;5.89;100.00;97381.78;4864074;29;20222;-69
2021/12/01 16:43:12;;;;;;;;;;;;;;;6.02;100.00;97398.06;4864321;29;19936;-70
2021/12/01 16:45:40;;;;;;;;;;;;;;;5.95;100.00;97402.41;4865126;29;20325;-70
2021/12/01 16:48:07;;;;;;;;;;;;;;;5.99;100.00;97408.00;4865447;29;19932;-69
2021/12/01 16:50:35;;;;;;;;;;;;;;;5.94;100.00;97392.50;4865307;29;19936;-70
2021/12/01 16:53:03;;;;;;;;;;;;;;;5.93;100.00;97382.59;4864534;29;19928;-69
2021/12/01 16:55:31;;;;;;;;;;;;;;;5.80;100.00;97375.75;4865674;29;19932;-69
2021/12/01 16:57:59;;;;;;;;;;;;;;;5.68;100.00;97392.72;4870298;29;19939;-69
2021/12/01 17:00:32;;;;;;;;;;;;;;;5.64;100.00;97380.03;4875250;29;19936;-69
2021/12/01 17:03:06;;;;;;;;;;;;;;;5.61;100.00;97369.72;4875520;29;19943;-69
2021/12/01 17:05:34;;;;;;;;;;;;;;;5.56;100.00;97379.19;4876092;29;19935;-69
2021/12/01 17:10:36;;;;;;;;;;;;;;;5.59;100.00;97394.25;4877179;29;19962;-70
2021/12/01 17:13:03;;;;;;;;;;;;;;;5.65;100.00;97382.41;4878243;29;20244;-70
2021/12/01 17:15:30;;;;;;;;;;;;;;;5.66;100.00;97369.34;4878171;29;19936;-70
2021/12/01 17:17:59;;;;;;;;;;;;;;;5.57;100.00;97364.16;4877010;29;20336;-70
2021/12/01 17:20:26;;;;;;;;;;;;;;;5.57;100.00;97366.13;4876166;29;19928;-70
2021/12/01 17:22:54;;;;;;;;;;;;;;;5.55;100.00;97366.50;4872861;29;19943;-70
2021/12/01 17:25:21;;;;;;;;;;;;;;;5.56;100.00;97370.06;4876221;29;19931;-70
2021/12/01 17:27:51;;;;;;;;;;;;;;;5.58;100.00;97354.66;4877562;29;19939;-70
2021/12/01 17:30:30;;;;;;;;;;;;;;;5.53;100.00;97352.25;4875782;29;20310;-70
2021/12/01 17:32:58;;;;;;;;;;;;;;;5.59;100.00;97359.03;4875434;29;19943;-70
2021/12/01 17:35:27;;;;;;;;;;;;;;;5.50;100.00;97361.31;4876873;29;19939;-70
2021/12/01 17:37:56;;;;;;;;;;;;;;;5.58;100.00;97365.72;4875486;29;19947;-69
2021/12/01 17:40:23;;;;;;;;;;;;;;;5.58;100.00;97353.84;4874504;29;19936;-70
2021/12/01 17:42:51;;;;;;;;;;;;;;;5.62;100.00;97363.78;4875673;29;19931;-70
2021/12/01 17:45:20;;;;;;;;;;;;;;;5.50;100.00;97343.91;4875306;29;19939;-70
2021/12/01 17:47:47;;;;;;;;;;;;;;;5.61;100.00;97341.97;4875581;29;19936;-70
2021/12/01 17:50:16;;;;;;;;;;;;;;;5.51;100.00;97345.50;4874956;29;19943;-69
2021/12/01 17:52:44;;;;;;;;;;;;;;;5.56;100.00;97345.91;4875166;29;19928;-70
2021/12/01 17:55:13;;;;;;;;;;;;;;;5.53;100.00;97345.88;4877643;29;20492;-70
2021/12/01 17:57:44;;;;;;;;;;;;;;;5.53;100.00;97351.44;4873422;29;20313;-70
2021/12/01 18:00:12;;;;;;;;;;;;;;;5.53;100.00;97355.00;4866647;29;19944;-70